sensor_id;sensor_type;location;lat;lon;timestamp;temperature;humidity
4308;DHT22;2167;53.448;9.984;2023-05-14T00:01:24;13.20;2.60
4308;DHT22;2167;53.448;9.984;2023-05-14T00:03:50;13.10;3.20
4308;DHT22;2167;53.448;9.984;2023-05-14T00:06:16;13.20;4.60
4308;DHT22;2167;53.448;9.984;2023-05-14T00:08:41;13.20;3.80
4308;DHT22;2167;53.448;9.984;2023-05-14T00:11:07;13.20;2.60
4308;DHT22;2167;53.448;9.984;2023-05-14T00:13:34;13.10;2.30
4308;DHT22;2167;53.448;9.984;2023-05-14T00:16:00;13.00;2.80
4308;DHT22;2167;53.448;9.984;2023-05-14T00:18:25;13.00;2.90
4308;DHT22;2167;53.448;9.984;2023-05-14T00:20:51;13.00;1.80
4308;DHT22;2167;53.448;9.984;2023-05-14T00:23:19;12.90;2.20
4308;DHT22;2167;53.448;9.984;2023-05-14T00:25:45;12.90;2.20
4308;DHT22;2167;53.448;9.984;2023-05-14T00:28:11;12.90;2.00
4308;DHT22;2167;53.448;9.984;2023-05-14T00:30:37;12.80;2.20
4308;DHT22;2167;53.448;9.984;2023-05-14T00:33:04;12.90;2.40
4308;DHT22;2167;53.448;9.984;2023-05-14T00:35:29;12.80;2.00
4308;DHT22;2167;53.448;9.984;2023-05-14T00:37:55;12.80;2.10
4308;DHT22;2167;53.448;9.984;2023-05-14T00:40:25;12.70;2.20
4308;DHT22;2167;53.448;9.984;2023-05-14T00:42:53;12.60;3.60
4308;DHT22;2167;53.448;9.984;2023-05-14T00:45:19;12.40;4.40
4308;DHT22;2167;53.448;9.984;2023-05-14T00:47:45;12.30;8.00
4308;DHT22;2167;53.448;9.984;2023-05-14T00:50:11;12.10;9.70
4308;DHT22;2167;53.448;9.984;2023-05-14T00:52:38;12.10;12.60
4308;DHT22;2167;53.448;9.984;2023-05-14T00:55:05;12.00;13.90
4308;DHT22;2167;53.448;9.984;2023-05-14T00:57:31;12.20;14.50
4308;DHT22;2167;53.448;9.984;2023-05-14T00:59:58;12.20;13.00
4308;DHT22;2167;53.448;9.984;2023-05-14T01:02:23;12.30;12.80
4308;DHT22;2167;53.448;9.984;2023-05-14T01:04:52;12.30;13.20
4308;DHT22;2167;53.448;9.984;2023-05-14T01:07:29;12.40;12.90
4308;DHT22;2167;53.448;9.984;2023-05-14T01:10:17;12.40;11.30
4308;DHT22;2167;53.448;9.984;2023-05-14T01:12:59;12.50;11.10
4308;DHT22;2167;53.448;9.984;2023-05-14T01:15:29;12.50;10.20
4308;DHT22;2167;53.448;9.984;2023-05-14T01:17:58;12.50;9.90
4308;DHT22;2167;53.448;9.984;2023-05-14T01:20:25;12.60;9.50
4308;DHT22;2167;53.448;9.984;2023-05-14T01:22:51;12.60;8.80
4308;DHT22;2167;53.448;9.984;2023-05-14T01:25:17;12.70;8.30
4308;DHT22;2167;53.448;9.984;2023-05-14T01:30:18;12.50;7.10
4308;DHT22;2167;53.448;9.984;2023-05-14T01:32:49;12.50;6.50
4308;DHT22;2167;53.448;9.984;2023-05-14T01:35:16;12.50;5.80
4308;DHT22;2167;53.448;9.984;2023-05-14T01:37:43;12.40;5.70
4308;DHT22;2167;53.448;9.984;2023-05-14T01:40:09;12.30;6.90
4308;DHT22;2167;53.448;9.984;2023-05-14T01:42:36;12.20;8.30
4308;DHT22;2167;53.448;9.984;2023-05-14T01:45:03;12.20;9.70
4308;DHT22;2167;53.448;9.984;2023-05-14T01:47:28;12.10;10.80
4308;DHT22;2167;53.448;9.984;2023-05-14T01:49:54;12.00;11.60
4308;DHT22;2167;53.448;9.984;2023-05-14T01:52:20;12.00;12.20
4308;DHT22;2167;53.448;9.984;2023-05-14T01:54:48;12.00;12.20
4308;DHT22;2167;53.448;9.984;2023-05-14T01:57:17;11.90;13.50
4308;DHT22;2167;53.448;9.984;2023-05-14T01:59:43;11.90;14.50
4308;DHT22;2167;53.448;9.984;2023-05-14T02:02:08;11.90;14.80
4308;DHT22;2167;53.448;9.984;2023-05-14T02:04:34;12.00;14.00
4308;DHT22;2167;53.448;9.984;2023-05-14T02:06:59;12.00;14.40
4308;DHT22;2167;53.448;9.984;2023-05-14T02:09:25;12.00;14.20
4308;DHT22;2167;53.448;9.984;2023-05-14T02:11:50;12.00;13.80
4308;DHT22;2167;53.448;9.984;2023-05-14T02:14:16;11.90;13.40
4308;DHT22;2167;53.448;9.984;2023-05-14T02:16:42;11.80;14.00
4308;DHT22;2167;53.448;9.984;2023-05-14T02:19:07;11.80;13.10
4308;DHT22;2167;53.448;9.984;2023-05-14T02:21:33;11.70;12.70
4308;DHT22;2167;53.448;9.984;2023-05-14T02:23:59;11.70;12.10
4308;DHT22;2167;53.448;9.984;2023-05-14T02:26:24;11.70;12.10
4308;DHT22;2167;53.448;9.984;2023-05-14T02:28:50;11.60;12.40
4308;DHT22;2167;53.448;9.984;2023-05-14T02:31:16;11.60;13.00
4308;DHT22;2167;53.448;9.984;2023-05-14T02:33:44;11.60;12.50
4308;DHT22;2167;53.448;9.984;2023-05-14T02:36:09;11.60;12.50
4308;DHT22;2167;53.448;9.984;2023-05-14T02:38:35;11.60;12.40
4308;DHT22;2167;53.448;9.984;2023-05-14T02:41:01;11.50;12.60
4308;DHT22;2167;53.448;9.984;2023-05-14T02:43:26;11.50;12.60
4308;DHT22;2167;53.448;9.984;2023-05-14T02:45:52;11.50;11.60
4308;DHT22;2167;53.448;9.984;2023-05-14T02:48:18;11.40;11.10
4308;DHT22;2167;53.448;9.984;2023-05-14T02:50:43;11.30;11.60
4308;DHT22;2167;53.448;9.984;2023-05-14T02:53:09;11.20;12.70
4308;DHT22;2167;53.448;9.984;2023-05-14T02:55:35;11.10;13.80
4308;DHT22;2167;53.448;9.984;2023-05-14T02:58:00;11.00;14.70
4308;DHT22;2167;53.448;9.984;2023-05-14T03:00:26;10.90;16.30
4308;DHT22;2167;53.448;9.984;2023-05-14T03:02:52;10.90;17.70
4308;DHT22;2167;53.448;9.984;2023-05-14T03:05:17;10.80;18.80
4308;DHT22;2167;53.448;9.984;2023-05-14T03:07:43;10.80;19.60
4308;DHT22;2167;53.448;9.984;2023-05-14T03:10:09;10.70;20.30
4308;DHT22;2167;53.448;9.984;2023-05-14T03:12:34;10.70;21.20
4308;DHT22;2167;53.448;9.984;2023-05-14T03:15:00;10.80;21.40
4308;DHT22;2167;53.448;9.984;2023-05-14T03:17:26;10.80;21.40
4308;DHT22;2167;53.448;9.984;2023-05-14T03:19:52;10.80;20.60
4308;DHT22;2167;53.448;9.984;2023-05-14T03:22:17;10.90;19.90
4308;DHT22;2167;53.448;9.984;2023-05-14T03:24:43;10.90;18.00
4308;DHT22;2167;53.448;9.984;2023-05-14T03:27:08;10.90;18.10
4308;DHT22;2167;53.448;9.984;2023-05-14T03:29:34;10.80;18.10
4308;DHT22;2167;53.448;9.984;2023-05-14T03:32:00;10.80;18.80
4308;DHT22;2167;53.448;9.984;2023-05-14T03:34:25;10.80;18.60
4308;DHT22;2167;53.448;9.984;2023-05-14T03:36:51;10.80;18.10
4308;DHT22;2167;53.448;9.984;2023-05-14T03:39:17;10.80;18.20
4308;DHT22;2167;53.448;9.984;2023-05-14T03:41:45;10.80;18.10
4308;DHT22;2167;53.448;9.984;2023-05-14T03:44:11;10.80;17.00
4308;DHT22;2167;53.448;9.984;2023-05-14T03:46:36;10.80;17.00
4308;DHT22;2167;53.448;9.984;2023-05-14T03:49:02;10.90;16.20
4308;DHT22;2167;53.448;9.984;2023-05-14T03:51:28;10.80;16.50
4308;DHT22;2167;53.448;9.984;2023-05-14T03:53:53;10.80;15.70
4308;DHT22;2167;53.448;9.984;2023-05-14T03:56:19;10.80;15.40
4308;DHT22;2167;53.448;9.984;2023-05-14T03:58:45;10.80;15.60
4308;DHT22;2167;53.448;9.984;2023-05-14T04:01:10;10.70;15.90
4308;DHT22;2167;53.448;9.984;2023-05-14T04:03:36;10.60;16.80
4308;DHT22;2167;53.448;9.984;2023-05-14T04:06:02;10.60;18.00
4308;DHT22;2167;53.448;9.984;2023-05-14T04:08:28;10.50;19.70
4308;DHT22;2167;53.448;9.984;2023-05-14T04:10:53;10.50;21.00
4308;DHT22;2167;53.448;9.984;2023-05-14T04:13:19;10.50;22.10
4308;DHT22;2167;53.448;9.984;2023-05-14T04:15:45;10.50;23.00
4308;DHT22;2167;53.448;9.984;2023-05-14T04:18:10;10.50;23.50
4308;DHT22;2167;53.448;9.984;2023-05-14T04:20:36;10.50;24.20
4308;DHT22;2167;53.448;9.984;2023-05-14T04:23:05;10.50;24.90
4308;DHT22;2167;53.448;9.984;2023-05-14T04:25:31;10.60;24.90
4308;DHT22;2167;53.448;9.984;2023-05-14T04:27:56;10.70;24.30
4308;DHT22;2167;53.448;9.984;2023-05-14T04:30:22;10.80;24.30
4308;DHT22;2167;53.448;9.984;2023-05-14T04:32:48;10.80;24.20
4308;DHT22;2167;53.448;9.984;2023-05-14T04:35:14;11.00;24.00
4308;DHT22;2167;53.448;9.984;2023-05-14T04:37:39;11.00;23.50
4308;DHT22;2167;53.448;9.984;2023-05-14T04:40:07;11.10;22.70
4308;DHT22;2167;53.448;9.984;2023-05-14T04:42:33;11.10;22.20
4308;DHT22;2167;53.448;9.984;2023-05-14T04:44:58;11.20;22.10
4308;DHT22;2167;53.448;9.984;2023-05-14T04:47:24;11.20;21.70
4308;DHT22;2167;53.448;9.984;2023-05-14T04:49:50;11.30;22.00
4308;DHT22;2167;53.448;9.984;2023-05-14T04:52:16;11.40;20.60
4308;DHT22;2167;53.448;9.984;2023-05-14T04:54:42;11.40;20.20
4308;DHT22;2167;53.448;9.984;2023-05-14T04:57:07;11.60;20.10
4308;DHT22;2167;53.448;9.984;2023-05-14T04:59:33;11.70;20.00
4308;DHT22;2167;53.448;9.984;2023-05-14T05:01:59;11.70;19.20
4308;DHT22;2167;53.448;9.984;2023-05-14T05:04:24;11.80;18.40
4308;DHT22;2167;53.448;9.984;2023-05-14T05:06:50;11.90;17.40
4308;DHT22;2167;53.448;9.984;2023-05-14T05:09:17;12.00;15.40
4308;DHT22;2167;53.448;9.984;2023-05-14T05:11:43;12.10;10.80
4308;DHT22;2167;53.448;9.984;2023-05-14T05:14:08;12.10;10.20
4308;DHT22;2167;53.448;9.984;2023-05-14T05:16:34;12.20;9.90
4308;DHT22;2167;53.448;9.984;2023-05-14T05:19:00;12.30;10.70
4308;DHT22;2167;53.448;9.984;2023-05-14T05:21:26;12.40;11.30
4308;DHT22;2167;53.448;9.984;2023-05-14T05:23:51;12.50;10.40
4308;DHT22;2167;53.448;9.984;2023-05-14T05:26:17;12.60;8.10
4308;DHT22;2167;53.448;9.984;2023-05-14T05:28:43;12.60;8.30
4308;DHT22;2167;53.448;9.984;2023-05-14T05:31:08;12.70;7.00
4308;DHT22;2167;53.448;9.984;2023-05-14T05:33:34;12.90;7.00
4308;DHT22;2167;53.448;9.984;2023-05-14T05:36:00;12.90;7.30
4308;DHT22;2167;53.448;9.984;2023-05-14T05:38:25;13.00;7.40
4308;DHT22;2167;53.448;9.984;2023-05-14T05:40:51;13.10;6.30
4308;DHT22;2167;53.448;9.984;2023-05-14T05:43:17;13.20;5.30
4308;DHT22;2167;53.448;9.984;2023-05-14T05:45:43;13.30;5.40
4308;DHT22;2167;53.448;9.984;2023-05-14T05:48:10;13.40;5.20
4308;DHT22;2167;53.448;9.984;2023-05-14T05:50:36;13.50;4.20
4308;DHT22;2167;53.448;9.984;2023-05-14T05:53:02;13.70;4.00
4308;DHT22;2167;53.448;9.984;2023-05-14T05:55:28;13.70;3.70
4308;DHT22;2167;53.448;9.984;2023-05-14T05:57:53;13.80;3.40
4308;DHT22;2167;53.448;9.984;2023-05-14T06:00:19;13.80;2.50
4308;DHT22;2167;53.448;9.984;2023-05-14T06:02:45;13.90;2.20
4308;DHT22;2167;53.448;9.984;2023-05-14T06:05:11;14.00;2.20
4308;DHT22;2167;53.448;9.984;2023-05-14T06:07:37;14.10;1.40
4308;DHT22;2167;53.448;9.984;2023-05-14T06:10:03;14.10;1.00
4308;DHT22;2167;53.448;9.984;2023-05-14T06:12:29;14.20;1.00
4308;DHT22;2167;53.448;9.984;2023-05-14T06:14:54;14.30;1.00
4308;DHT22;2167;53.448;9.984;2023-05-14T06:17:22;14.40;1.30
4308;DHT22;2167;53.448;9.984;2023-05-14T06:19:48;14.50;1.30
4308;DHT22;2167;53.448;9.984;2023-05-14T06:22:13;14.60;1.00
4308;DHT22;2167;53.448;9.984;2023-05-14T06:24:39;14.80;1.00
4308;DHT22;2167;53.448;9.984;2023-05-14T06:27:05;14.90;1.00
4308;DHT22;2167;53.448;9.984;2023-05-14T06:29:31;14.90;1.00
4308;DHT22;2167;53.448;9.984;2023-05-14T06:32:00;15.00;1.00
4308;DHT22;2167;53.448;9.984;2023-05-14T06:34:26;15.10;1.00
4308;DHT22;2167;53.448;9.984;2023-05-14T06:36:52;15.20;1.00
4308;DHT22;2167;53.448;9.984;2023-05-14T06:39:17;15.30;1.00
4308;DHT22;2167;53.448;9.984;2023-05-14T06:41:43;15.40;1.00
4308;DHT22;2167;53.448;9.984;2023-05-14T06:44:08;15.50;1.00
4308;DHT22;2167;53.448;9.984;2023-05-14T06:46:35;15.70;1.00
4308;DHT22;2167;53.448;9.984;2023-05-14T06:49:01;15.80;1.00
4308;DHT22;2167;53.448;9.984;2023-05-14T06:51:26;15.90;1.00
4308;DHT22;2167;53.448;9.984;2023-05-14T06:53:53;16.00;1.00
4308;DHT22;2167;53.448;9.984;2023-05-14T06:56:19;16.00;1.00
4308;DHT22;2167;53.448;9.984;2023-05-14T06:58:46;16.00;1.00
4308;DHT22;2167;53.448;9.984;2023-05-14T07:01:11;16.20;1.00
4308;DHT22;2167;53.448;9.984;2023-05-14T07:03:37;16.30;1.00
4308;DHT22;2167;53.448;9.984;2023-05-14T07:06:02;16.30;1.00
4308;DHT22;2167;53.448;9.984;2023-05-14T07:08:28;16.50;1.00
4308;DHT22;2167;53.448;9.984;2023-05-14T07:10:54;16.60;1.00
4308;DHT22;2167;53.448;9.984;2023-05-14T07:13:21;16.70;1.00
4308;DHT22;2167;53.448;9.984;2023-05-14T07:15:48;16.80;1.00
4308;DHT22;2167;53.448;9.984;2023-05-14T07:18:15;16.90;1.00
4308;DHT22;2167;53.448;9.984;2023-05-14T07:20:41;17.00;1.00
4308;DHT22;2167;53.448;9.984;2023-05-14T07:23:07;17.10;1.00
4308;DHT22;2167;53.448;9.984;2023-05-14T07:25:32;17.20;1.00
4308;DHT22;2167;53.448;9.984;2023-05-14T07:27:58;17.30;1.00
4308;DHT22;2167;53.448;9.984;2023-05-14T07:30:24;17.40;1.00
4308;DHT22;2167;53.448;9.984;2023-05-14T07:32:49;17.50;1.00
4308;DHT22;2167;53.448;9.984;2023-05-14T07:35:15;17.60;1.00
4308;DHT22;2167;53.448;9.984;2023-05-14T07:37:41;17.80;1.00
4308;DHT22;2167;53.448;9.984;2023-05-14T07:40:07;17.80;1.00
4308;DHT22;2167;53.448;9.984;2023-05-14T07:42:37;17.90;1.00
4308;DHT22;2167;53.448;9.984;2023-05-14T07:45:03;17.90;1.00
4308;DHT22;2167;53.448;9.984;2023-05-14T07:47:29;18.00;1.00
4308;DHT22;2167;53.448;9.984;2023-05-14T07:49:56;18.10;1.00
4308;DHT22;2167;53.448;9.984;2023-05-14T07:52:22;18.30;1.00
4308;DHT22;2167;53.448;9.984;2023-05-14T07:54:48;18.40;1.00
4308;DHT22;2167;53.448;9.984;2023-05-14T07:57:14;18.50;1.00
4308;DHT22;2167;53.448;9.984;2023-05-14T07:59:40;18.60;1.00
4308;DHT22;2167;53.448;9.984;2023-05-14T08:02:06;18.80;1.00
4308;DHT22;2167;53.448;9.984;2023-05-14T08:04:34;18.90;1.00
4308;DHT22;2167;53.448;9.984;2023-05-14T08:07:00;19.10;1.00
4308;DHT22;2167;53.448;9.984;2023-05-14T08:09:26;19.30;1.00
4308;DHT22;2167;53.448;9.984;2023-05-14T08:11:52;19.50;1.00
4308;DHT22;2167;53.448;9.984;2023-05-14T08:14:17;19.70;1.00
4308;DHT22;2167;53.448;9.984;2023-05-14T08:16:43;20.00;1.00
4308;DHT22;2167;53.448;9.984;2023-05-14T08:19:08;20.30;1.00
4308;DHT22;2167;53.448;9.984;2023-05-14T08:21:34;20.50;1.00
4308;DHT22;2167;53.448;9.984;2023-05-14T08:24:00;20.60;1.00
4308;DHT22;2167;53.448;9.984;2023-05-14T08:26:25;20.70;1.00
4308;DHT22;2167;53.448;9.984;2023-05-14T08:28:52;20.70;1.00
4308;DHT22;2167;53.448;9.984;2023-05-14T08:31:19;20.90;1.00
4308;DHT22;2167;53.448;9.984;2023-05-14T08:33:44;21.20;1.00
4308;DHT22;2167;53.448;9.984;2023-05-14T08:36:10;21.40;1.00
4308;DHT22;2167;53.448;9.984;2023-05-14T08:38:36;21.50;1.00
4308;DHT22;2167;53.448;9.984;2023-05-14T08:41:04;21.60;1.00
4308;DHT22;2167;53.448;9.984;2023-05-14T08:43:43;21.80;1.00
4308;DHT22;2167;53.448;9.984;2023-05-14T08:46:13;22.00;1.00
4308;DHT22;2167;53.448;9.984;2023-05-14T08:48:41;22.20;1.00
4308;DHT22;2167;53.448;9.984;2023-05-14T08:51:08;22.20;1.00
4308;DHT22;2167;53.448;9.984;2023-05-14T08:53:33;22.40;1.00
4308;DHT22;2167;53.448;9.984;2023-05-14T08:56:00;22.40;1.00
4308;DHT22;2167;53.448;9.984;2023-05-14T08:58:26;22.60;1.00
4308;DHT22;2167;53.448;9.984;2023-05-14T09:00:53;22.80;1.00
4308;DHT22;2167;53.448;9.984;2023-05-14T09:03:20;22.90;1.00
4308;DHT22;2167;53.448;9.984;2023-05-14T09:05:48;22.80;1.00
4308;DHT22;2167;53.448;9.984;2023-05-14T09:08:15;22.70;1.00
4308;DHT22;2167;53.448;9.984;2023-05-14T09:10:41;22.80;1.00
4308;DHT22;2167;53.448;9.984;2023-05-14T09:13:06;22.80;1.00
4308;DHT22;2167;53.448;9.984;2023-05-14T09:15:36;23.00;1.00
4308;DHT22;2167;53.448;9.984;2023-05-14T09:18:04;23.20;1.00
4308;DHT22;2167;53.448;9.984;2023-05-14T09:20:30;23.40;1.00
4308;DHT22;2167;53.448;9.984;2023-05-14T09:22:57;23.50;1.00
4308;DHT22;2167;53.448;9.984;2023-05-14T09:25:30;23.70;1.00
4308;DHT22;2167;53.448;9.984;2023-05-14T09:28:05;23.90;1.00
4308;DHT22;2167;53.448;9.984;2023-05-14T09:30:32;24.00;1.00
4308;DHT22;2167;53.448;9.984;2023-05-14T09:32:59;24.00;1.00
4308;DHT22;2167;53.448;9.984;2023-05-14T09:35:24;24.10;1.00
4308;DHT22;2167;53.448;9.984;2023-05-14T09:37:52;24.30;1.00
4308;DHT22;2167;53.448;9.984;2023-05-14T09:40:19;24.20;1.00
4308;DHT22;2167;53.448;9.984;2023-05-14T09:42:45;24.20;1.00
4308;DHT22;2167;53.448;9.984;2023-05-14T09:45:12;24.30;1.00
4308;DHT22;2167;53.448;9.984;2023-05-14T09:47:38;24.30;1.00
4308;DHT22;2167;53.448;9.984;2023-05-14T09:50:04;24.40;1.00
4308;DHT22;2167;53.448;9.984;2023-05-14T09:52:35;24.30;1.00
4308;DHT22;2167;53.448;9.984;2023-05-14T09:55:01;24.50;1.00
4308;DHT22;2167;53.448;9.984;2023-05-14T09:57:27;24.70;1.00
4308;DHT22;2167;53.448;9.984;2023-05-14T09:59:53;24.80;1.00
4308;DHT22;2167;53.448;9.984;2023-05-14T10:02:29;24.90;1.00
4308;DHT22;2167;53.448;9.984;2023-05-14T10:05:03;25.00;1.00
4308;DHT22;2167;53.448;9.984;2023-05-14T10:07:34;24.90;1.00
4308;DHT22;2167;53.448;9.984;2023-05-14T10:10:02;24.80;1.00
4308;DHT22;2167;53.448;9.984;2023-05-14T10:12:32;24.70;1.00
4308;DHT22;2167;53.448;9.984;2023-05-14T10:15:05;24.70;1.00
4308;DHT22;2167;53.448;9.984;2023-05-14T10:17:33;24.70;1.00
4308;DHT22;2167;53.448;9.984;2023-05-14T10:20:01;24.80;1.00
4308;DHT22;2167;53.448;9.984;2023-05-14T10:22:32;24.90;1.00
4308;DHT22;2167;53.448;9.984;2023-05-14T10:24:59;25.20;1.00
4308;DHT22;2167;53.448;9.984;2023-05-14T10:27:25;25.20;1.00
4308;DHT22;2167;53.448;9.984;2023-05-14T10:29:53;24.90;1.00
4308;DHT22;2167;53.448;9.984;2023-05-14T10:32:20;24.90;1.00
4308;DHT22;2167;53.448;9.984;2023-05-14T10:34:46;25.00;1.00
4308;DHT22;2167;53.448;9.984;2023-05-14T10:37:21;25.20;1.00
4308;DHT22;2167;53.448;9.984;2023-05-14T10:39:58;25.30;1.00
4308;DHT22;2167;53.448;9.984;2023-05-14T10:42:28;25.20;1.00
4308;DHT22;2167;53.448;9.984;2023-05-14T10:44:59;25.00;1.00
4308;DHT22;2167;53.448;9.984;2023-05-14T10:47:30;24.80;1.00
4308;DHT22;2167;53.448;9.984;2023-05-14T10:49:58;24.50;1.00
4308;DHT22;2167;53.448;9.984;2023-05-14T10:52:24;24.20;1.00
4308;DHT22;2167;53.448;9.984;2023-05-14T10:54:54;24.00;1.00
4308;DHT22;2167;53.448;9.984;2023-05-14T10:57:22;23.70;1.00
4308;DHT22;2167;53.448;9.984;2023-05-14T10:59:50;23.40;1.00
4308;DHT22;2167;53.448;9.984;2023-05-14T11:02:30;23.20;1.00
4308;DHT22;2167;53.448;9.984;2023-05-14T11:04:59;23.00;1.00
4308;DHT22;2167;53.448;9.984;2023-05-14T11:07:51;22.80;1.00
4308;DHT22;2167;53.448;9.984;2023-05-14T11:10:20;22.70;1.00
4308;DHT22;2167;53.448;9.984;2023-05-14T11:12:48;22.70;1.00
4308;DHT22;2167;53.448;9.984;2023-05-14T11:15:16;22.60;1.00
4308;DHT22;2167;53.448;9.984;2023-05-14T11:17:43;22.60;1.00
4308;DHT22;2167;53.448;9.984;2023-05-14T11:20:09;22.80;1.00
4308;DHT22;2167;53.448;9.984;2023-05-14T11:22:36;22.90;1.00
4308;DHT22;2167;53.448;9.984;2023-05-14T11:25:04;23.00;1.00
4308;DHT22;2167;53.448;9.984;2023-05-14T11:27:32;23.20;1.00
4308;DHT22;2167;53.448;9.984;2023-05-14T11:29:58;23.40;1.00
4308;DHT22;2167;53.448;9.984;2023-05-14T11:32:25;23.70;1.00
4308;DHT22;2167;53.448;9.984;2023-05-14T11:34:51;23.90;1.00
4308;DHT22;2167;53.448;9.984;2023-05-14T11:37:17;24.00;1.00
4308;DHT22;2167;53.448;9.984;2023-05-14T11:39:51;24.20;1.00
4308;DHT22;2167;53.448;9.984;2023-05-14T11:42:17;24.40;1.00
4308;DHT22;2167;53.448;9.984;2023-05-14T11:44:49;24.50;1.00
4308;DHT22;2167;53.448;9.984;2023-05-14T11:47:17;24.70;1.00
4308;DHT22;2167;53.448;9.984;2023-05-14T11:49:43;24.70;1.00
4308;DHT22;2167;53.448;9.984;2023-05-14T11:52:10;24.80;1.00
4308;DHT22;2167;53.448;9.984;2023-05-14T11:54:37;24.90;1.00
4308;DHT22;2167;53.448;9.984;2023-05-14T11:57:14;25.10;1.00
4308;DHT22;2167;53.448;9.984;2023-05-14T11:59:40;25.40;1.00
4308;DHT22;2167;53.448;9.984;2023-05-14T12:02:13;25.70;1.00
4308;DHT22;2167;53.448;9.984;2023-05-14T12:04:40;26.20;1.00
4308;DHT22;2167;53.448;9.984;2023-05-14T12:07:11;26.40;1.00
4308;DHT22;2167;53.448;9.984;2023-05-14T12:09:42;26.50;1.00
4308;DHT22;2167;53.448;9.984;2023-05-14T12:12:13;26.50;1.00
4308;DHT22;2167;53.448;9.984;2023-05-14T12:14:41;26.20;1.00
4308;DHT22;2167;53.448;9.984;2023-05-14T12:17:19;25.90;1.00
4308;DHT22;2167;53.448;9.984;2023-05-14T12:19:47;25.50;1.00
4308;DHT22;2167;53.448;9.984;2023-05-14T12:22:16;25.30;1.00
4308;DHT22;2167;53.448;9.984;2023-05-14T12:24:42;25.00;1.00
4308;DHT22;2167;53.448;9.984;2023-05-14T12:27:16;24.80;1.00
4308;DHT22;2167;53.448;9.984;2023-05-14T12:29:45;24.60;1.00
4308;DHT22;2167;53.448;9.984;2023-05-14T12:32:11;24.50;1.00
4308;DHT22;2167;53.448;9.984;2023-05-14T12:34:37;24.40;1.00
4308;DHT22;2167;53.448;9.984;2023-05-14T12:37:04;24.40;1.00
4308;DHT22;2167;53.448;9.984;2023-05-14T12:39:32;24.20;1.00
4308;DHT22;2167;53.448;9.984;2023-05-14T12:41:58;24.00;1.00
4308;DHT22;2167;53.448;9.984;2023-05-14T12:44:23;23.80;1.00
4308;DHT22;2167;53.448;9.984;2023-05-14T12:46:49;23.80;1.00
4308;DHT22;2167;53.448;9.984;2023-05-14T12:49:14;23.70;1.00
4308;DHT22;2167;53.448;9.984;2023-05-14T12:51:40;23.60;1.00
4308;DHT22;2167;53.448;9.984;2023-05-14T12:54:06;23.60;1.00
4308;DHT22;2167;53.448;9.984;2023-05-14T12:56:31;23.60;1.00
4308;DHT22;2167;53.448;9.984;2023-05-14T12:58:57;23.50;1.00
4308;DHT22;2167;53.448;9.984;2023-05-14T13:01:23;23.50;1.00
4308;DHT22;2167;53.448;9.984;2023-05-14T13:03:49;23.60;1.00
4308;DHT22;2167;53.448;9.984;2023-05-14T13:06:14;23.70;1.00
4308;DHT22;2167;53.448;9.984;2023-05-14T13:08:40;23.80;1.00
4308;DHT22;2167;53.448;9.984;2023-05-14T13:11:06;23.90;1.00
4308;DHT22;2167;53.448;9.984;2023-05-14T13:13:32;24.00;1.00
4308;DHT22;2167;53.448;9.984;2023-05-14T13:15:58;24.00;1.00
4308;DHT22;2167;53.448;9.984;2023-05-14T13:18:23;24.00;1.00
4308;DHT22;2167;53.448;9.984;2023-05-14T13:20:51;24.00;1.00
4308;DHT22;2167;53.448;9.984;2023-05-14T13:23:17;24.10;1.00
4308;DHT22;2167;53.448;9.984;2023-05-14T13:25:42;24.10;1.00
4308;DHT22;2167;53.448;9.984;2023-05-14T13:28:08;24.10;1.00
4308;DHT22;2167;53.448;9.984;2023-05-14T13:30:34;24.20;1.00
4308;DHT22;2167;53.448;9.984;2023-05-14T13:32:59;24.20;1.00
4308;DHT22;2167;53.448;9.984;2023-05-14T13:35:25;24.30;1.00
4308;DHT22;2167;53.448;9.984;2023-05-14T13:37:51;24.40;1.00
4308;DHT22;2167;53.448;9.984;2023-05-14T13:40:16;24.40;1.00
4308;DHT22;2167;53.448;9.984;2023-05-14T13:42:42;24.30;1.00
4308;DHT22;2167;53.448;9.984;2023-05-14T13:45:08;24.40;1.00
4308;DHT22;2167;53.448;9.984;2023-05-14T13:47:34;24.30;1.00
4308;DHT22;2167;53.448;9.984;2023-05-14T13:50:00;24.40;1.00
4308;DHT22;2167;53.448;9.984;2023-05-14T13:52:25;24.40;1.00
4308;DHT22;2167;53.448;9.984;2023-05-14T13:54:51;24.50;1.00
4308;DHT22;2167;53.448;9.984;2023-05-14T13:57:18;24.70;1.00
4308;DHT22;2167;53.448;9.984;2023-05-14T13:59:45;25.00;1.00
4308;DHT22;2167;53.448;9.984;2023-05-14T14:02:11;25.40;1.00
4308;DHT22;2167;53.448;9.984;2023-05-14T14:04:36;25.60;1.00
4308;DHT22;2167;53.448;9.984;2023-05-14T14:07:02;25.90;1.00
4308;DHT22;2167;53.448;9.984;2023-05-14T14:09:28;26.10;1.00
4308;DHT22;2167;53.448;9.984;2023-05-14T14:11:59;25.90;1.00
4308;DHT22;2167;53.448;9.984;2023-05-14T14:14:25;25.70;1.00
4308;DHT22;2167;53.448;9.984;2023-05-14T14:16:50;25.50;1.00
4308;DHT22;2167;53.448;9.984;2023-05-14T14:19:16;25.50;1.00
4308;DHT22;2167;53.448;9.984;2023-05-14T14:21:41;25.50;1.00
4308;DHT22;2167;53.448;9.984;2023-05-14T14:24:07;25.70;1.00
4308;DHT22;2167;53.448;9.984;2023-05-14T14:26:33;25.80;1.00
4308;DHT22;2167;53.448;9.984;2023-05-14T14:28:59;26.00;1.00
4308;DHT22;2167;53.448;9.984;2023-05-14T14:31:24;26.10;1.00
4308;DHT22;2167;53.448;9.984;2023-05-14T14:33:50;26.20;1.00
4308;DHT22;2167;53.448;9.984;2023-05-14T14:36:15;26.30;1.00
4308;DHT22;2167;53.448;9.984;2023-05-14T14:38:41;26.40;1.00
4308;DHT22;2167;53.448;9.984;2023-05-14T14:41:06;26.50;1.00
4308;DHT22;2167;53.448;9.984;2023-05-14T14:43:36;26.50;1.00
4308;DHT22;2167;53.448;9.984;2023-05-14T14:46:03;26.60;1.00
4308;DHT22;2167;53.448;9.984;2023-05-14T14:51:01;26.70;1.00
4308;DHT22;2167;53.448;9.984;2023-05-14T14:53:27;26.60;1.00
4308;DHT22;2167;53.448;9.984;2023-05-14T14:55:53;26.60;1.00
4308;DHT22;2167;53.448;9.984;2023-05-14T14:58:19;26.80;1.00
4308;DHT22;2167;53.448;9.984;2023-05-14T15:00:45;26.90;1.00
4308;DHT22;2167;53.448;9.984;2023-05-14T15:03:11;27.10;1.00
4308;DHT22;2167;53.448;9.984;2023-05-14T15:05:39;27.20;1.00
4308;DHT22;2167;53.448;9.984;2023-05-14T15:08:04;27.10;1.00
4308;DHT22;2167;53.448;9.984;2023-05-14T15:10:30;26.90;1.00
4308;DHT22;2167;53.448;9.984;2023-05-14T15:12:57;26.80;1.00
4308;DHT22;2167;53.448;9.984;2023-05-14T15:15:24;26.80;1.00
4308;DHT22;2167;53.448;9.984;2023-05-14T15:17:50;26.80;1.00
4308;DHT22;2167;53.448;9.984;2023-05-14T15:20:16;26.80;1.00
4308;DHT22;2167;53.448;9.984;2023-05-14T15:22:42;26.90;1.00
4308;DHT22;2167;53.448;9.984;2023-05-14T15:25:08;27.10;1.00
4308;DHT22;2167;53.448;9.984;2023-05-14T15:27:34;27.00;1.00
4308;DHT22;2167;53.448;9.984;2023-05-14T15:29:59;26.80;1.00
4308;DHT22;2167;53.448;9.984;2023-05-14T15:32:25;26.70;1.00
4308;DHT22;2167;53.448;9.984;2023-05-14T15:34:53;26.50;1.00
4308;DHT22;2167;53.448;9.984;2023-05-14T15:37:18;26.20;1.00
4308;DHT22;2167;53.448;9.984;2023-05-14T15:39:44;26.20;1.00
4308;DHT22;2167;53.448;9.984;2023-05-14T15:42:10;26.10;1.00
4308;DHT22;2167;53.448;9.984;2023-05-14T15:44:35;26.10;1.00
4308;DHT22;2167;53.448;9.984;2023-05-14T15:47:01;26.10;1.00
4308;DHT22;2167;53.448;9.984;2023-05-14T15:49:27;26.00;1.00
4308;DHT22;2167;53.448;9.984;2023-05-14T15:51:53;25.90;1.00
4308;DHT22;2167;53.448;9.984;2023-05-14T15:54:19;25.90;1.00
4308;DHT22;2167;53.448;9.984;2023-05-14T15:56:44;25.90;1.00
4308;DHT22;2167;53.448;9.984;2023-05-14T15:59:11;25.80;1.00
4308;DHT22;2167;53.448;9.984;2023-05-14T16:01:38;25.80;1.00
4308;DHT22;2167;53.448;9.984;2023-05-14T16:04:04;26.00;1.00
4308;DHT22;2167;53.448;9.984;2023-05-14T16:06:29;26.10;1.00
4308;DHT22;2167;53.448;9.984;2023-05-14T16:08:55;26.20;1.00
4308;DHT22;2167;53.448;9.984;2023-05-14T16:11:21;26.10;1.00
4308;DHT22;2167;53.448;9.984;2023-05-14T16:13:47;26.10;1.00
4308;DHT22;2167;53.448;9.984;2023-05-14T16:16:12;26.10;1.00